sensor_id;sensor_type;location;lat;lon;timestamp;P1;durP1;ratioP1;P2;durP2;ratioP2
8171;SDS011;4127;47.908;10.850;2022-10-22T00:02:05;2.10;;;1.23;;
8171;SDS011;4127;47.908;10.850;2022-10-22T00:04:33;1.47;;;1.20;;
8171;SDS011;4127;47.908;10.850;2022-10-22T00:07:01;2.00;;;1.03;;
8171;SDS011;4127;47.908;10.850;2022-10-22T00:09:27;1.60;;;1.50;;
8171;SDS011;4127;47.908;10.850;2022-10-22T00:11:54;1.67;;;1.57;;
8171;SDS011;4127;47.908;10.850;2022-10-22T00:14:21;2.17;;;1.50;;
8171;SDS011;4127;47.908;10.850;2022-10-22T00:16:47;1.93;;;1.47;;
8171;SDS011;4127;47.908;10.850;2022-10-22T00:19:14;2.57;;;1.60;;
8171;SDS011;4127;47.908;10.850;2022-10-22T00:21:41;2.50;;;1.60;;
8171;SDS011;4127;47.908;10.850;2022-10-22T00:24:08;3.03;;;1.70;;
8171;SDS011;4127;47.908;10.850;2022-10-22T00:26:35;3.37;;;1.50;;
8171;SDS011;4127;47.908;10.850;2022-10-22T00:29:01;1.60;;;1.43;;
8171;SDS011;4127;47.908;10.850;2022-10-22T00:31:28;3.30;;;1.37;;
8171;SDS011;4127;47.908;10.850;2022-10-22T00:33:55;1.83;;;1.47;;
8171;SDS011;4127;47.908;10.850;2022-10-22T00:36:22;1.60;;;1.47;;
8171;SDS011;4127;47.908;10.850;2022-10-22T00:38:48;2.77;;;1.63;;
8171;SDS011;4127;47.908;10.850;2022-10-22T00:41:15;2.43;;;1.70;;
8171;SDS011;4127;47.908;10.850;2022-10-22T00:43:56;1.53;;;1.30;;
8171;SDS011;4127;47.908;10.850;2022-10-22T00:46:25;2.40;;;1.30;;
8171;SDS011;4127;47.908;10.850;2022-10-22T00:48:52;1.40;;;1.30;;
8171;SDS011;4127;47.908;10.850;2022-10-22T00:51:22;1.47;;;1.37;;
8171;SDS011;4127;47.908;10.850;2022-10-22T00:53:53;1.37;;;1.20;;
8171;SDS011;4127;47.908;10.850;2022-10-22T00:56:24;1.47;;;1.37;;
8171;SDS011;4127;47.908;10.850;2022-10-22T00:58:52;1.53;;;1.30;;
8171;SDS011;4127;47.908;10.850;2022-10-22T01:01:24;2.23;;;1.40;;
8171;SDS011;4127;47.908;10.850;2022-10-22T01:03:53;1.60;;;1.33;;
8171;SDS011;4127;47.908;10.850;2022-10-22T01:06:22;2.80;;;1.40;;
8171;SDS011;4127;47.908;10.850;2022-10-22T01:08:57;2.00;;;1.73;;
8171;SDS011;4127;47.908;10.850;2022-10-22T01:17:35;1.70;;;1.60;;
8171;SDS011;4127;47.908;10.850;2022-10-22T01:28:51;3.30;;;1.30;;
8171;SDS011;4127;47.908;10.850;2022-10-22T01:31:26;2.03;;;1.63;;
8171;SDS011;4127;47.908;10.850;2022-10-22T01:33:56;1.63;;;1.53;;
8171;SDS011;4127;47.908;10.850;2022-10-22T01:36:26;1.80;;;1.53;;
8171;SDS011;4127;47.908;10.850;2022-10-22T01:38:56;1.60;;;1.20;;
8171;SDS011;4127;47.908;10.850;2022-10-22T01:41:25;1.87;;;1.40;;
8171;SDS011;4127;47.908;10.850;2022-10-22T01:43:54;1.63;;;1.50;;
8171;SDS011;4127;47.908;10.850;2022-10-22T01:46:21;1.53;;;1.30;;
8171;SDS011;4127;47.908;10.850;2022-10-22T09:36:27;3.77;;;3.47;;
8171;SDS011;4127;47.908;10.850;2022-10-22T09:38:54;2.40;;;2.20;;
8171;SDS011;4127;47.908;10.850;2022-10-22T09:41:23;7.07;;;6.37;;
8171;SDS011;4127;47.908;10.850;2022-10-22T09:43:52;8.03;;;2.20;;
8171;SDS011;4127;47.908;10.850;2022-10-22T09:46:20;2.50;;;1.63;;
8171;SDS011;4127;47.908;10.850;2022-10-22T09:48:57;1.40;;;1.30;;
8171;SDS011;4127;47.908;10.850;2022-10-22T09:51:41;1.27;;;1.10;;
8171;SDS011;4127;47.908;10.850;2022-10-22T09:56:56;2.17;;;1.47;;
8171;SDS011;4127;47.908;10.850;2022-10-22T09:59:37;1.57;;;1.47;;
8171;SDS011;4127;47.908;10.850;2022-10-22T10:02:13;1.23;;;1.13;;
8171;SDS011;4127;47.908;10.850;2022-10-22T10:05:02;1.77;;;1.50;;
8171;SDS011;4127;47.908;10.850;2022-10-22T10:07:31;2.47;;;2.27;;
8171;SDS011;4127;47.908;10.850;2022-10-22T10:09:58;2.33;;;2.10;;
8171;SDS011;4127;47.908;10.850;2022-10-22T10:12:29;1.33;;;1.23;;
8171;SDS011;4127;47.908;10.850;2022-10-22T10:15:06;1.50;;;1.40;;
8171;SDS011;4127;47.908;10.850;2022-10-22T10:17:50;1.10;;;1.10;;
8171;SDS011;4127;47.908;10.850;2022-10-22T10:26:00;1.30;;;1.20;;
8171;SDS011;4127;47.908;10.850;2022-10-22T10:28:54;1.13;;;1.10;;
8171;SDS011;4127;47.908;10.850;2022-10-22T10:39:33;1.33;;;1.23;;
8171;SDS011;4127;47.908;10.850;2022-10-22T10:42:06;1.27;;;1.17;;
8171;SDS011;4127;47.908;10.850;2022-10-22T10:45:07;1.57;;;1.30;;
8171;SDS011;4127;47.908;10.850;2022-10-22T10:59:18;1.40;;;1.30;;
8171;SDS011;4127;47.908;10.850;2022-10-22T11:01:54;1.53;;;1.43;;
8171;SDS011;4127;47.908;10.850;2022-10-22T11:04:44;2.30;;;1.10;;
8171;SDS011;4127;47.908;10.850;2022-10-22T11:07:23;4.27;;;2.07;;
8171;SDS011;4127;47.908;10.850;2022-10-22T11:10:06;1.80;;;1.70;;
8171;SDS011;4127;47.908;10.850;2022-10-22T11:12:44;1.20;;;1.10;;
8171;SDS011;4127;47.908;10.850;2022-10-22T11:17:46;1.03;;;0.93;;
8171;SDS011;4127;47.908;10.850;2022-10-22T11:20:15;1.23;;;1.00;;
8171;SDS011;4127;47.908;10.850;2022-10-22T11:22:58;1.00;;;1.00;;
8171;SDS011;4127;47.908;10.850;2022-10-22T11:25:47;1.20;;;1.10;;
8171;SDS011;4127;47.908;10.850;2022-10-22T11:30:42;0.83;;;0.83;;
8171;SDS011;4127;47.908;10.850;2022-10-22T11:33:14;2.33;;;1.97;;
8171;SDS011;4127;47.908;10.850;2022-10-22T11:35:44;2.33;;;1.90;;
8171;SDS011;4127;47.908;10.850;2022-10-22T11:38:13;2.90;;;2.60;;
8171;SDS011;4127;47.908;10.850;2022-10-22T11:40:44;3.80;;;3.10;;
8171;SDS011;4127;47.908;10.850;2022-10-22T11:43:35;2.50;;;1.90;;
8171;SDS011;4127;47.908;10.850;2022-10-22T11:48:43;3.80;;;3.10;;
8171;SDS011;4127;47.908;10.850;2022-10-22T11:51:32;1.50;;;1.40;;
8171;SDS011;4127;47.908;10.850;2022-10-22T11:59:59;1.80;;;1.70;;
8171;SDS011;4127;47.908;10.850;2022-10-22T12:08:13;2.53;;;1.10;;
8171;SDS011;4127;47.908;10.850;2022-10-22T12:16:24;1.40;;;1.30;;
8171;SDS011;4127;47.908;10.850;2022-10-22T12:21:50;1.17;;;0.97;;
8171;SDS011;4127;47.908;10.850;2022-10-22T12:24:21;1.20;;;1.10;;
8171;SDS011;4127;47.908;10.850;2022-10-22T12:26:49;1.50;;;1.40;;
8171;SDS011;4127;47.908;10.850;2022-10-22T12:29:18;0.97;;;0.87;;
8171;SDS011;4127;47.908;10.850;2022-10-22T12:31:48;0.97;;;0.97;;
8171;SDS011;4127;47.908;10.850;2022-10-22T12:34:20;1.00;;;1.00;;
8171;SDS011;4127;47.908;10.850;2022-10-22T12:36:49;0.80;;;0.80;;
8171;SDS011;4127;47.908;10.850;2022-10-22T12:39:19;1.10;;;1.00;;
8171;SDS011;4127;47.908;10.850;2022-10-22T12:41:55;1.13;;;1.02;;
8171;SDS011;4127;47.908;10.850;2022-10-22T12:44:21;1.10;;;1.00;;
8171;SDS011;4127;47.908;10.850;2022-10-22T12:46:48;1.73;;;1.30;;
8171;SDS011;4127;47.908;10.850;2022-10-22T12:49:23;1.77;;;1.20;;
8171;SDS011;4127;47.908;10.850;2022-10-22T12:51:56;1.20;;;1.10;;
8171;SDS011;4127;47.908;10.850;2022-10-22T12:54:30;1.47;;;1.30;;
8171;SDS011;4127;47.908;10.850;2022-10-22T12:56:58;2.60;;;1.10;;
8171;SDS011;4127;47.908;10.850;2022-10-22T12:59:32;1.43;;;1.10;;
8171;SDS011;4127;47.908;10.850;2022-10-22T13:02:03;2.23;;;1.23;;
8171;SDS011;4127;47.908;10.850;2022-10-22T13:07:42;1.47;;;1.33;;
8171;SDS011;4127;47.908;10.850;2022-10-22T13:12:49;2.30;;;1.33;;
8171;SDS011;4127;47.908;10.850;2022-10-22T13:17:47;1.45;;;1.15;;
8171;SDS011;4127;47.908;10.850;2022-10-22T13:20:21;2.07;;;1.17;;
8171;SDS011;4127;47.908;10.850;2022-10-22T13:22:58;1.70;;;1.20;;
8171;SDS011;4127;47.908;10.850;2022-10-22T13:33:43;2.37;;;1.37;;
8171;SDS011;4127;47.908;10.850;2022-10-22T13:36:12;1.60;;;1.20;;
8171;SDS011;4127;47.908;10.850;2022-10-22T13:38:40;1.30;;;1.20;;
8171;SDS011;4127;47.908;10.850;2022-10-22T13:41:17;1.50;;;1.40;;
8171;SDS011;4127;47.908;10.850;2022-10-22T13:43:47;3.07;;;1.27;;
8171;SDS011;4127;47.908;10.850;2022-10-22T13:46:14;1.70;;;1.30;;
8171;SDS011;4127;47.908;10.850;2022-10-22T13:48:42;1.53;;;1.40;;
8171;SDS011;4127;47.908;10.850;2022-10-22T13:51:16;1.70;;;1.33;;
8171;SDS011;4127;47.908;10.850;2022-10-22T13:53:45;2.40;;;1.23;;
8171;SDS011;4127;47.908;10.850;2022-10-22T13:56:14;1.70;;;1.20;;
8171;SDS011;4127;47.908;10.850;2022-10-22T13:58:43;1.60;;;1.40;;
8171;SDS011;4127;47.908;10.850;2022-10-22T14:01:21;1.40;;;1.30;;
8171;SDS011;4127;47.908;10.850;2022-10-22T14:03:50;1.20;;;1.10;;
8171;SDS011;4127;47.908;10.850;2022-10-22T14:06:19;1.77;;;1.47;;
8171;SDS011;4127;47.908;10.850;2022-10-22T14:08:48;1.30;;;1.20;;
8171;SDS011;4127;47.908;10.850;2022-10-22T14:11:20;2.37;;;1.20;;
8171;SDS011;4127;47.908;10.850;2022-10-22T14:13:47;1.13;;;1.00;;
8171;SDS011;4127;47.908;10.850;2022-10-22T14:16:18;1.10;;;1.07;;
8171;SDS011;4127;47.908;10.850;2022-10-22T14:18:47;1.33;;;0.90;;
8171;SDS011;4127;47.908;10.850;2022-10-22T14:21:15;1.30;;;1.20;;
8171;SDS011;4127;47.908;10.850;2022-10-22T14:23:43;1.40;;;1.30;;
8171;SDS011;4127;47.908;10.850;2022-10-22T14:26:19;1.20;;;1.10;;
8171;SDS011;4127;47.908;10.850;2022-10-22T14:28:48;0.83;;;0.80;;
8171;SDS011;4127;47.908;10.850;2022-10-22T14:31:35;2.13;;;1.57;;
8171;SDS011;4127;47.908;10.850;2022-10-22T14:34:03;1.47;;;1.20;;
8171;SDS011;4127;47.908;10.850;2022-10-22T14:36:30;1.93;;;1.40;;
8171;SDS011;4127;47.908;10.850;2022-10-22T14:38:56;1.97;;;1.20;;
8171;SDS011;4127;47.908;10.850;2022-10-22T14:41:24;1.20;;;1.10;;
8171;SDS011;4127;47.908;10.850;2022-10-22T14:43:53;7.13;;;1.17;;
8171;SDS011;4127;47.908;10.850;2022-10-22T14:46:21;1.27;;;1.17;;
8171;SDS011;4127;47.908;10.850;2022-10-22T14:48:47;1.27;;;0.83;;
8171;SDS011;4127;47.908;10.850;2022-10-22T14:51:18;1.87;;;1.13;;
8171;SDS011;4127;47.908;10.850;2022-10-22T14:53:46;2.33;;;1.57;;
8171;SDS011;4127;47.908;10.850;2022-10-22T14:56:13;1.50;;;1.40;;
8171;SDS011;4127;47.908;10.850;2022-10-22T14:58:42;1.47;;;1.37;;
8171;SDS011;4127;47.908;10.850;2022-10-22T15:01:08;1.67;;;1.30;;
8171;SDS011;4127;47.908;10.850;2022-10-22T15:03:35;1.83;;;1.40;;
8171;SDS011;4127;47.908;10.850;2022-10-22T15:06:02;1.33;;;1.23;;
8171;SDS011;4127;47.908;10.850;2022-10-22T15:08:29;1.10;;;1.10;;
8171;SDS011;4127;47.908;10.850;2022-10-22T15:10:56;1.67;;;1.13;;
8171;SDS011;4127;47.908;10.850;2022-10-22T15:13:31;3.20;;;1.63;;
8171;SDS011;4127;47.908;10.850;2022-10-22T15:15:59;1.33;;;1.20;;
8171;SDS011;4127;47.908;10.850;2022-10-22T15:18:26;2.10;;;1.87;;
8171;SDS011;4127;47.908;10.850;2022-10-22T15:20:57;3.53;;;2.20;;
8171;SDS011;4127;47.908;10.850;2022-10-22T15:23:25;2.10;;;1.90;;
8171;SDS011;4127;47.908;10.850;2022-10-22T15:25:53;2.20;;;2.00;;
8171;SDS011;4127;47.908;10.850;2022-10-22T15:28:20;1.50;;;1.40;;
8171;SDS011;4127;47.908;10.850;2022-10-22T15:30:51;2.67;;;1.40;;
8171;SDS011;4127;47.908;10.850;2022-10-22T15:33:19;3.57;;;1.47;;
8171;SDS011;4127;47.908;10.850;2022-10-22T15:35:46;1.70;;;1.23;;
8171;SDS011;4127;47.908;10.850;2022-10-22T15:38:13;1.40;;;1.17;;
8171;SDS011;4127;47.908;10.850;2022-10-22T15:40:40;2.57;;;1.90;;
8171;SDS011;4127;47.908;10.850;2022-10-22T15:43:06;1.80;;;1.67;;
8171;SDS011;4127;47.908;10.850;2022-10-22T15:45:33;1.33;;;1.23;;
8171;SDS011;4127;47.908;10.850;2022-10-22T15:48:00;1.30;;;1.20;;
8171;SDS011;4127;47.908;10.850;2022-10-22T15:50:27;1.93;;;1.10;;
8171;SDS011;4127;47.908;10.850;2022-10-22T15:52:53;1.60;;;1.40;;
8171;SDS011;4127;47.908;10.850;2022-10-22T15:55:21;1.40;;;1.30;;
8171;SDS011;4127;47.908;10.850;2022-10-22T15:57:48;1.40;;;1.30;;
8171;SDS011;4127;47.908;10.850;2022-10-22T16:00:20;1.50;;;1.40;;
8171;SDS011;4127;47.908;10.850;2022-10-22T16:02:48;1.70;;;1.60;;
8171;SDS011;4127;47.908;10.850;2022-10-22T16:05:15;2.40;;;2.00;;
8171;SDS011;4127;47.908;10.850;2022-10-22T16:07:41;4.07;;;2.60;;
8171;SDS011;4127;47.908;10.850;2022-10-22T16:10:09;3.43;;;2.77;;
8171;SDS011;4127;47.908;10.850;2022-10-22T16:12:37;3.10;;;2.60;;
8171;SDS011;4127;47.908;10.850;2022-10-22T16:15:07;3.73;;;2.17;;
8171;SDS011;4127;47.908;10.850;2022-10-22T16:17:35;14.63;;;11.47;;
8171;SDS011;4127;47.908;10.850;2022-10-22T16:20:02;15.87;;;13.87;;
8171;SDS011;4127;47.908;10.850;2022-10-22T16:22:29;8.93;;;7.27;;
8171;SDS011;4127;47.908;10.850;2022-10-22T16:24:56;5.43;;;4.23;;
8171;SDS011;4127;47.908;10.850;2022-10-22T16:27:22;2.30;;;1.87;;
8171;SDS011;4127;47.908;10.850;2022-10-22T16:29:49;1.80;;;1.70;;
8171;SDS011;4127;47.908;10.850;2022-10-22T16:32:16;2.27;;;1.80;;
8171;SDS011;4127;47.908;10.850;2022-10-22T16:34:42;2.20;;;1.40;;
8171;SDS011;4127;47.908;10.850;2022-10-22T16:37:09;1.60;;;1.50;;
8171;SDS011;4127;47.908;10.850;2022-10-22T16:39:36;1.70;;;1.60;;
8171;SDS011;4127;47.908;10.850;2022-10-22T16:42:03;1.80;;;1.70;;
8171;SDS011;4127;47.908;10.850;2022-10-22T16:44:30;3.60;;;3.30;;
8171;SDS011;4127;47.908;10.850;2022-10-22T16:46:57;3.70;;;2.67;;
8171;SDS011;4127;47.908;10.850;2022-10-22T16:49:24;7.63;;;6.03;;
8171;SDS011;4127;47.908;10.850;2022-10-22T16:51:50;10.73;;;9.27;;
8171;SDS011;4127;47.908;10.850;2022-10-22T16:54:17;4.60;;;4.20;;
8171;SDS011;4127;47.908;10.850;2022-10-22T16:56:46;3.30;;;3.00;;
8171;SDS011;4127;47.908;10.850;2022-10-22T16:59:13;6.07;;;4.60;;
8171;SDS011;4127;47.908;10.850;2022-10-22T17:01:40;7.33;;;6.63;;
8171;SDS011;4127;47.908;10.850;2022-10-22T17:04:07;5.10;;;4.33;;
8171;SDS011;4127;47.908;10.850;2022-10-22T17:06:34;3.03;;;2.83;;
8171;SDS011;4127;47.908;10.850;2022-10-22T17:09:01;3.23;;;2.20;;
8171;SDS011;4127;47.908;10.850;2022-10-22T17:11:29;3.43;;;2.37;;
8171;SDS011;4127;47.908;10.850;2022-10-22T17:14:01;2.03;;;1.80;;
8171;SDS011;4127;47.908;10.850;2022-10-22T17:16:29;2.63;;;2.40;;
8171;SDS011;4127;47.908;10.850;2022-10-22T17:18:55;3.60;;;2.40;;
8171;SDS011;4127;47.908;10.850;2022-10-22T17:21:23;2.07;;;1.97;;
8171;SDS011;4127;47.908;10.850;2022-10-22T17:24:04;3.43;;;2.37;;
8171;SDS011;4127;47.908;10.850;2022-10-22T17:33:38;2.60;;;1.63;;
8171;SDS011;4127;47.908;10.850;2022-10-22T17:36:06;4.70;;;2.87;;
8171;SDS011;4127;47.908;10.850;2022-10-22T17:46:17;4.13;;;3.17;;
